Terminal Aerodrome Forecast
Issued by NWS Lubbock, TX

Home | Current Version | Previous Version | Text Only | Print | Product List | Glossary On
Versions: 1 2 3 4 5 6 7 8 9 10 11 12 13 14 15 16 17
000
FTUS44 KLUB 231246 AAA
TAFLBB
TAF AMD
KLBB 231246Z 2313/2412 18017KT P6SM SCT012
     FM231700 18030G40KT 6SM BLDU FEW050 SCT120 BKN250 PROB30
      2401/2404 TSRA BKN050CB
     FM240400 26020G28KT P6SM SKC=

USA.gov is the U.S. government's official web portal to all federal, state and local government web resources and services.